Segondi, Kazakhstan
Current Conditions -  °F | °C
As of 4:00 PM on Tuesday 21 Oct 2014 (Local Time) from UATE Reporting Station
Overcast Overcast  
Wind Chill: 50°   Ceiling: 4300
Heat Index: 50°   Visibility: 6mi
Dew Point: 37°   Wind: 18mph
Humidity: 62%   Direction: 130°SE
Pressure: 29.97"   Gusts: NA
Location:  43.84°N, 51.02°E
Report Text: UATE 211200Z 13008MPS 9999 OVC043 10/03 Q1015 R12/0///70 NOSIGRMK QFE759/1012
Loading
Personal Weather Stations






























Interactive Weather Map
Tropical Storm Tracking
New forecast layout! Learn more

10-Day Weather Forecast

Advertisements
Track Severe Weather on mobile